sensor_id;sensor_type;location;lat;lon;timestamp;P1;durP1;ratioP1;P2;durP2;ratioP2
75885;SDS011;64561;44.018;10.144;2024-02-21T00:02:24;10.15;;;5.13;;
75885;SDS011;64561;44.018;10.144;2024-02-21T00:04:51;9.07;;;4.68;;
75885;SDS011;64561;44.018;10.144;2024-02-21T00:07:19;10.75;;;5.65;;
75885;SDS011;64561;44.018;10.144;2024-02-21T00:09:46;7.25;;;4.85;;
75885;SDS011;64561;44.018;10.144;2024-02-21T00:12:14;10.13;;;4.97;;
75885;SDS011;64561;44.018;10.144;2024-02-21T00:14:41;8.70;;;4.15;;
75885;SDS011;64561;44.018;10.144;2024-02-21T00:17:08;8.50;;;4.55;;
75885;SDS011;64561;44.018;10.144;2024-02-21T00:19:35;8.60;;;4.53;;
75885;SDS011;64561;44.018;10.144;2024-02-21T00:22:03;7.00;;;5.07;;
75885;SDS011;64561;44.018;10.144;2024-02-21T00:24:31;8.55;;;4.43;;
75885;SDS011;64561;44.018;10.144;2024-02-21T00:26:58;7.55;;;5.15;;
75885;SDS011;64561;44.018;10.144;2024-02-21T00:29:25;8.52;;;4.90;;
75885;SDS011;64561;44.018;10.144;2024-02-21T00:31:54;9.38;;;5.47;;
75885;SDS011;64561;44.018;10.144;2024-02-21T00:34:21;9.85;;;4.70;;
75885;SDS011;64561;44.018;10.144;2024-02-21T00:36:49;9.10;;;5.20;;
75885;SDS011;64561;44.018;10.144;2024-02-21T00:39:17;8.70;;;5.28;;
75885;SDS011;64561;44.018;10.144;2024-02-21T00:41:44;9.20;;;5.68;;
75885;SDS011;64561;44.018;10.144;2024-02-21T00:44:11;10.82;;;5.65;;
75885;SDS011;64561;44.018;10.144;2024-02-21T00:46:39;9.80;;;5.45;;
75885;SDS011;64561;44.018;10.144;2024-02-21T00:49:06;10.15;;;6.18;;
75885;SDS011;64561;44.018;10.144;2024-02-21T00:51:33;15.93;;;7.72;;
75885;SDS011;64561;44.018;10.144;2024-02-21T00:54:00;13.13;;;7.40;;
75885;SDS011;64561;44.018;10.144;2024-02-21T00:56:28;7.60;;;5.18;;
75885;SDS011;64561;44.018;10.144;2024-02-21T00:58:56;7.97;;;4.25;;
75885;SDS011;64561;44.018;10.144;2024-02-21T01:01:26;7.07;;;4.85;;
75885;SDS011;64561;44.018;10.144;2024-02-21T01:03:53;7.15;;;4.40;;
75885;SDS011;64561;44.018;10.144;2024-02-21T01:06:21;7.32;;;4.78;;
75885;SDS011;64561;44.018;10.144;2024-02-21T01:08:49;8.40;;;5.30;;
75885;SDS011;64561;44.018;10.144;2024-02-21T01:11:16;6.93;;;5.05;;
75885;SDS011;64561;44.018;10.144;2024-02-21T01:13:43;8.73;;;4.70;;
75885;SDS011;64561;44.018;10.144;2024-02-21T01:16:11;6.38;;;4.15;;
75885;SDS011;64561;44.018;10.144;2024-02-21T01:18:38;5.13;;;3.38;;
75885;SDS011;64561;44.018;10.144;2024-02-21T01:21:07;5.47;;;4.00;;
75885;SDS011;64561;44.018;10.144;2024-02-21T01:23:34;7.43;;;4.25;;
75885;SDS011;64561;44.018;10.144;2024-02-21T01:26:03;5.57;;;3.60;;
75885;SDS011;64561;44.018;10.144;2024-02-21T01:28:31;5.25;;;3.40;;
75885;SDS011;64561;44.018;10.144;2024-02-21T01:30:58;6.03;;;4.47;;
75885;SDS011;64561;44.018;10.144;2024-02-21T01:33:25;5.93;;;4.60;;
75885;SDS011;64561;44.018;10.144;2024-02-21T01:35:52;6.22;;;4.43;;
75885;SDS011;64561;44.018;10.144;2024-02-21T01:38:20;6.70;;;4.68;;
75885;SDS011;64561;44.018;10.144;2024-02-21T01:40:48;7.18;;;4.97;;
75885;SDS011;64561;44.018;10.144;2024-02-21T01:43:19;10.48;;;5.15;;
75885;SDS011;64561;44.018;10.144;2024-02-21T01:45:52;6.32;;;4.63;;
75885;SDS011;64561;44.018;10.144;2024-02-21T01:48:24;7.60;;;5.82;;
75885;SDS011;64561;44.018;10.144;2024-02-21T01:50:52;7.75;;;5.22;;
75885;SDS011;64561;44.018;10.144;2024-02-21T01:53:29;7.45;;;4.25;;
75885;SDS011;64561;44.018;10.144;2024-02-21T01:58:26;6.38;;;3.85;;
75885;SDS011;64561;44.018;10.144;2024-02-21T02:00:57;7.88;;;3.90;;
75885;SDS011;64561;44.018;10.144;2024-02-21T02:03:24;5.53;;;3.55;;
75885;SDS011;64561;44.018;10.144;2024-02-21T02:05:52;6.03;;;3.45;;
75885;SDS011;64561;44.018;10.144;2024-02-21T02:08:19;5.03;;;3.47;;
75885;SDS011;64561;44.018;10.144;2024-02-21T02:10:49;6.38;;;3.67;;
75885;SDS011;64561;44.018;10.144;2024-02-21T02:13:17;5.38;;;3.42;;
75885;SDS011;64561;44.018;10.144;2024-02-21T02:15:45;8.15;;;3.78;;
75885;SDS011;64561;44.018;10.144;2024-02-21T02:18:14;5.85;;;3.40;;
75885;SDS011;64561;44.018;10.144;2024-02-21T02:20:44;7.60;;;4.07;;
75885;SDS011;64561;44.018;10.144;2024-02-21T02:25:46;6.53;;;3.78;;
75885;SDS011;64561;44.018;10.144;2024-02-21T02:28:20;5.45;;;3.97;;
75885;SDS011;64561;44.018;10.144;2024-02-21T02:30:48;7.15;;;4.15;;
75885;SDS011;64561;44.018;10.144;2024-02-21T02:33:16;5.63;;;3.92;;
75885;SDS011;64561;44.018;10.144;2024-02-21T02:35:47;5.80;;;4.03;;
75885;SDS011;64561;44.018;10.144;2024-02-21T02:38:14;6.13;;;3.60;;
75885;SDS011;64561;44.018;10.144;2024-02-21T02:40:41;5.45;;;3.70;;
75885;SDS011;64561;44.018;10.144;2024-02-21T02:43:09;7.95;;;5.15;;
75885;SDS011;64561;44.018;10.144;2024-02-21T02:45:36;8.60;;;4.82;;
75885;SDS011;64561;44.018;10.144;2024-02-21T02:48:04;7.93;;;4.65;;
75885;SDS011;64561;44.018;10.144;2024-02-21T02:50:31;6.75;;;4.40;;
75885;SDS011;64561;44.018;10.144;2024-02-21T02:52:59;8.52;;;4.43;;
75885;SDS011;64561;44.018;10.144;2024-02-21T02:55:26;8.52;;;6.00;;
75885;SDS011;64561;44.018;10.144;2024-02-21T02:57:54;10.15;;;6.43;;
75885;SDS011;64561;44.018;10.144;2024-02-21T03:00:21;9.43;;;7.10;;
75885;SDS011;64561;44.018;10.144;2024-02-21T03:02:49;9.93;;;6.88;;
75885;SDS011;64561;44.018;10.144;2024-02-21T03:05:20;10.45;;;7.05;;
75885;SDS011;64561;44.018;10.144;2024-02-21T03:07:49;9.18;;;6.13;;
75885;SDS011;64561;44.018;10.144;2024-02-21T03:10:17;9.02;;;6.05;;
75885;SDS011;64561;44.018;10.144;2024-02-21T03:12:45;8.73;;;5.10;;
75885;SDS011;64561;44.018;10.144;2024-02-21T03:15:13;7.50;;;4.97;;
75885;SDS011;64561;44.018;10.144;2024-02-21T03:17:41;6.85;;;4.47;;
75885;SDS011;64561;44.018;10.144;2024-02-21T03:20:09;6.05;;;4.65;;
75885;SDS011;64561;44.018;10.144;2024-02-21T03:22:39;6.35;;;4.22;;
75885;SDS011;64561;44.018;10.144;2024-02-21T03:25:08;8.35;;;4.20;;
75885;SDS011;64561;44.018;10.144;2024-02-21T03:27:39;6.38;;;4.03;;
75885;SDS011;64561;44.018;10.144;2024-02-21T03:30:07;8.13;;;4.35;;
75885;SDS011;64561;44.018;10.144;2024-02-21T03:32:34;7.38;;;4.28;;
75885;SDS011;64561;44.018;10.144;2024-02-21T03:35:02;6.50;;;4.15;;
75885;SDS011;64561;44.018;10.144;2024-02-21T03:37:30;6.35;;;3.80;;
75885;SDS011;64561;44.018;10.144;2024-02-21T03:39:57;6.43;;;4.05;;
75885;SDS011;64561;44.018;10.144;2024-02-21T03:42:25;8.15;;;4.55;;
75885;SDS011;64561;44.018;10.144;2024-02-21T03:44:52;6.85;;;3.60;;
75885;SDS011;64561;44.018;10.144;2024-02-21T03:47:19;6.97;;;3.63;;
75885;SDS011;64561;44.018;10.144;2024-02-21T03:49:46;8.48;;;3.92;;
75885;SDS011;64561;44.018;10.144;2024-02-21T03:52:14;5.55;;;3.42;;
75885;SDS011;64561;44.018;10.144;2024-02-21T03:54:41;7.10;;;4.50;;
75885;SDS011;64561;44.018;10.144;2024-02-21T03:57:08;7.55;;;3.90;;
75885;SDS011;64561;44.018;10.144;2024-02-21T03:59:35;5.35;;;3.22;;
75885;SDS011;64561;44.018;10.144;2024-02-21T04:02:02;7.18;;;3.50;;
75885;SDS011;64561;44.018;10.144;2024-02-21T04:04:35;6.95;;;3.90;;
75885;SDS011;64561;44.018;10.144;2024-02-21T04:07:04;6.38;;;3.75;;
75885;SDS011;64561;44.018;10.144;2024-02-21T04:09:35;7.38;;;4.03;;
75885;SDS011;64561;44.018;10.144;2024-02-21T04:12:02;6.05;;;3.55;;
75885;SDS011;64561;44.018;10.144;2024-02-21T04:14:30;5.97;;;3.65;;
75885;SDS011;64561;44.018;10.144;2024-02-21T04:16:57;6.28;;;4.03;;
75885;SDS011;64561;44.018;10.144;2024-02-21T04:19:24;6.28;;;4.35;;
75885;SDS011;64561;44.018;10.144;2024-02-21T04:21:52;6.50;;;3.92;;
75885;SDS011;64561;44.018;10.144;2024-02-21T04:24:19;6.55;;;3.58;;
75885;SDS011;64561;44.018;10.144;2024-02-21T04:26:47;5.50;;;3.40;;
75885;SDS011;64561;44.018;10.144;2024-02-21T04:29:14;6.18;;;3.53;;
75885;SDS011;64561;44.018;10.144;2024-02-21T04:31:42;5.60;;;3.80;;
75885;SDS011;64561;44.018;10.144;2024-02-21T04:34:09;5.60;;;3.35;;
75885;SDS011;64561;44.018;10.144;2024-02-21T04:36:36;9.05;;;5.45;;
75885;SDS011;64561;44.018;10.144;2024-02-21T04:39:03;9.00;;;5.53;;
75885;SDS011;64561;44.018;10.144;2024-02-21T04:41:31;9.18;;;5.95;;
75885;SDS011;64561;44.018;10.144;2024-02-21T04:43:58;7.03;;;4.50;;
75885;SDS011;64561;44.018;10.144;2024-02-21T04:46:25;7.07;;;4.22;;
75885;SDS011;64561;44.018;10.144;2024-02-21T04:48:53;7.95;;;3.85;;
75885;SDS011;64561;44.018;10.144;2024-02-21T04:51:20;6.53;;;4.00;;
75885;SDS011;64561;44.018;10.144;2024-02-21T04:53:47;5.03;;;3.33;;
75885;SDS011;64561;44.018;10.144;2024-02-21T04:56:14;4.60;;;3.50;;
75885;SDS011;64561;44.018;10.144;2024-02-21T04:58:41;7.55;;;3.90;;
75885;SDS011;64561;44.018;10.144;2024-02-21T05:01:08;11.88;;;7.25;;
75885;SDS011;64561;44.018;10.144;2024-02-21T05:03:36;11.27;;;6.60;;
75885;SDS011;64561;44.018;10.144;2024-02-21T05:06:03;13.02;;;6.65;;
75885;SDS011;64561;44.018;10.144;2024-02-21T05:08:30;17.77;;;8.10;;
75885;SDS011;64561;44.018;10.144;2024-02-21T05:10:57;12.13;;;7.57;;
75885;SDS011;64561;44.018;10.144;2024-02-21T05:13:25;10.90;;;6.75;;
75885;SDS011;64561;44.018;10.144;2024-02-21T05:15:52;9.90;;;6.90;;
75885;SDS011;64561;44.018;10.144;2024-02-21T05:18:19;11.13;;;5.88;;
75885;SDS011;64561;44.018;10.144;2024-02-21T05:20:47;8.63;;;4.95;;
75885;SDS011;64561;44.018;10.144;2024-02-21T05:23:14;7.20;;;4.40;;
75885;SDS011;64561;44.018;10.144;2024-02-21T05:25:41;11.73;;;4.57;;
75885;SDS011;64561;44.018;10.144;2024-02-21T05:28:09;6.05;;;3.92;;
75885;SDS011;64561;44.018;10.144;2024-02-21T05:30:36;7.20;;;4.47;;
75885;SDS011;64561;44.018;10.144;2024-02-21T05:33:04;6.25;;;4.05;;
75885;SDS011;64561;44.018;10.144;2024-02-21T05:35:32;5.68;;;4.03;;
75885;SDS011;64561;44.018;10.144;2024-02-21T05:38:00;7.47;;;3.65;;
75885;SDS011;64561;44.018;10.144;2024-02-21T05:40:27;6.90;;;4.15;;
75885;SDS011;64561;44.018;10.144;2024-02-21T05:42:54;10.93;;;4.90;;
75885;SDS011;64561;44.018;10.144;2024-02-21T05:45:22;6.43;;;4.05;;
75885;SDS011;64561;44.018;10.144;2024-02-21T05:47:50;6.60;;;4.18;;
75885;SDS011;64561;44.018;10.144;2024-02-21T05:50:39;6.43;;;3.47;;
75885;SDS011;64561;44.018;10.144;2024-02-21T05:53:06;7.32;;;3.60;;
75885;SDS011;64561;44.018;10.144;2024-02-21T05:55:33;5.38;;;3.13;;
75885;SDS011;64561;44.018;10.144;2024-02-21T05:58:01;9.80;;;4.70;;
75885;SDS011;64561;44.018;10.144;2024-02-21T06:00:29;6.00;;;5.13;;
75885;SDS011;64561;44.018;10.144;2024-02-21T06:02:56;7.57;;;5.30;;
75885;SDS011;64561;44.018;10.144;2024-02-21T06:05:24;9.80;;;6.20;;
75885;SDS011;64561;44.018;10.144;2024-02-21T06:07:51;7.88;;;4.22;;
75885;SDS011;64561;44.018;10.144;2024-02-21T06:10:18;9.90;;;4.15;;
75885;SDS011;64561;44.018;10.144;2024-02-21T06:12:46;6.65;;;4.38;;
75885;SDS011;64561;44.018;10.144;2024-02-21T06:15:13;11.40;;;7.72;;
75885;SDS011;64561;44.018;10.144;2024-02-21T06:17:40;12.30;;;7.97;;
75885;SDS011;64561;44.018;10.144;2024-02-21T06:20:08;11.38;;;5.50;;
75885;SDS011;64561;44.018;10.144;2024-02-21T06:22:35;7.50;;;4.63;;
75885;SDS011;64561;44.018;10.144;2024-02-21T06:25:03;6.60;;;4.20;;
75885;SDS011;64561;44.018;10.144;2024-02-21T06:27:31;10.68;;;6.80;;
75885;SDS011;64561;44.018;10.144;2024-02-21T06:29:58;11.98;;;6.47;;
75885;SDS011;64561;44.018;10.144;2024-02-21T06:32:25;11.93;;;7.00;;
75885;SDS011;64561;44.018;10.144;2024-02-21T06:34:53;16.73;;;9.13;;
75885;SDS011;64561;44.018;10.144;2024-02-21T06:37:20;12.45;;;7.35;;
75885;SDS011;64561;44.018;10.144;2024-02-21T06:39:48;16.45;;;9.18;;
75885;SDS011;64561;44.018;10.144;2024-02-21T06:42:15;14.23;;;8.55;;
75885;SDS011;64561;44.018;10.144;2024-02-21T06:44:43;13.35;;;8.05;;
75885;SDS011;64561;44.018;10.144;2024-02-21T06:47:11;14.23;;;7.45;;
75885;SDS011;64561;44.018;10.144;2024-02-21T06:49:38;12.63;;;6.65;;
75885;SDS011;64561;44.018;10.144;2024-02-21T06:52:05;19.88;;;9.65;;
75885;SDS011;64561;44.018;10.144;2024-02-21T06:54:33;26.30;;;11.32;;
75885;SDS011;64561;44.018;10.144;2024-02-21T06:57:00;25.95;;;11.57;;
75885;SDS011;64561;44.018;10.144;2024-02-21T06:59:27;23.17;;;11.95;;
75885;SDS011;64561;44.018;10.144;2024-02-21T07:01:54;20.90;;;10.35;;
75885;SDS011;64561;44.018;10.144;2024-02-21T07:04:25;17.70;;;10.65;;
75885;SDS011;64561;44.018;10.144;2024-02-21T07:06:52;20.60;;;10.68;;
75885;SDS011;64561;44.018;10.144;2024-02-21T07:09:20;16.90;;;9.07;;
75885;SDS011;64561;44.018;10.144;2024-02-21T07:11:47;18.80;;;9.88;;
75885;SDS011;64561;44.018;10.144;2024-02-21T07:14:14;21.60;;;10.20;;
75885;SDS011;64561;44.018;10.144;2024-02-21T07:16:44;17.85;;;9.18;;
75885;SDS011;64561;44.018;10.144;2024-02-21T07:19:11;12.70;;;7.85;;
75885;SDS011;64561;44.018;10.144;2024-02-21T07:21:39;16.65;;;9.82;;
75885;SDS011;64561;44.018;10.144;2024-02-21T07:24:08;14.80;;;9.35;;
75885;SDS011;64561;44.018;10.144;2024-02-21T07:26:35;18.92;;;10.43;;
75885;SDS011;64561;44.018;10.144;2024-02-21T07:29:03;20.90;;;9.48;;
75885;SDS011;64561;44.018;10.144;2024-02-21T07:31:30;16.77;;;10.32;;
75885;SDS011;64561;44.018;10.144;2024-02-21T07:33:57;19.00;;;10.35;;
75885;SDS011;64561;44.018;10.144;2024-02-21T07:36:27;16.85;;;9.68;;
75885;SDS011;64561;44.018;10.144;2024-02-21T07:38:56;16.60;;;7.88;;
75885;SDS011;64561;44.018;10.144;2024-02-21T07:41:24;18.05;;;8.00;;
75885;SDS011;64561;44.018;10.144;2024-02-21T07:43:52;11.43;;;7.28;;
75885;SDS011;64561;44.018;10.144;2024-02-21T07:46:19;13.23;;;7.38;;
75885;SDS011;64561;44.018;10.144;2024-02-21T07:48:47;11.70;;;6.60;;
75885;SDS011;64561;44.018;10.144;2024-02-21T07:51:15;13.40;;;7.07;;
75885;SDS011;64561;44.018;10.144;2024-02-21T07:53:46;13.85;;;8.65;;
75885;SDS011;64561;44.018;10.144;2024-02-21T07:56:16;20.55;;;10.73;;
75885;SDS011;64561;44.018;10.144;2024-02-21T07:58:45;27.10;;;12.73;;
75885;SDS011;64561;44.018;10.144;2024-02-21T08:01:18;32.42;;;17.42;;
75885;SDS011;64561;44.018;10.144;2024-02-21T08:03:47;40.83;;;20.75;;
75885;SDS011;64561;44.018;10.144;2024-02-21T08:06:15;46.03;;;24.60;;
75885;SDS011;64561;44.018;10.144;2024-02-21T08:08:42;43.45;;;23.63;;
75885;SDS011;64561;44.018;10.144;2024-02-21T08:11:10;44.97;;;23.92;;
75885;SDS011;64561;44.018;10.144;2024-02-21T08:13:37;46.35;;;25.52;;
75885;SDS011;64561;44.018;10.144;2024-02-21T08:16:05;43.95;;;24.83;;
75885;SDS011;64561;44.018;10.144;2024-02-21T08:18:32;40.83;;;21.15;;
75885;SDS011;64561;44.018;10.144;2024-02-21T08:21:03;33.40;;;21.45;;
75885;SDS011;64561;44.018;10.144;2024-02-21T08:23:32;29.45;;;18.20;;
75885;SDS011;64561;44.018;10.144;2024-02-21T08:25:59;27.45;;;16.08;;
75885;SDS011;64561;44.018;10.144;2024-02-21T08:28:26;26.10;;;15.57;;
75885;SDS011;64561;44.018;10.144;2024-02-21T08:30:57;26.05;;;14.43;;
75885;SDS011;64561;44.018;10.144;2024-02-21T08:33:25;24.80;;;14.93;;
75885;SDS011;64561;44.018;10.144;2024-02-21T08:35:52;33.72;;;18.70;;
75885;SDS011;64561;44.018;10.144;2024-02-21T08:38:19;37.47;;;21.33;;
75885;SDS011;64561;44.018;10.144;2024-02-21T08:40:47;36.50;;;19.80;;
75885;SDS011;64561;44.018;10.144;2024-02-21T08:43:14;33.70;;;19.30;;
75885;SDS011;64561;44.018;10.144;2024-02-21T08:45:41;39.03;;;21.75;;
75885;SDS011;64561;44.018;10.144;2024-02-21T08:48:10;38.10;;;20.08;;
75885;SDS011;64561;44.018;10.144;2024-02-21T08:50:37;39.80;;;20.73;;
75885;SDS011;64561;44.018;10.144;2024-02-21T08:53:05;39.83;;;21.35;;
75885;SDS011;64561;44.018;10.144;2024-02-21T08:55:34;38.22;;;20.55;;
75885;SDS011;64561;44.018;10.144;2024-02-21T08:58:02;34.97;;;20.58;;
75885;SDS011;64561;44.018;10.144;2024-02-21T09:00:31;35.47;;;19.38;;
75885;SDS011;64561;44.018;10.144;2024-02-21T09:02:59;35.67;;;19.73;;
75885;SDS011;64561;44.018;10.144;2024-02-21T09:05:26;38.70;;;20.15;;
75885;SDS011;64561;44.018;10.144;2024-02-21T09:07:53;33.97;;;20.33;;
75885;SDS011;64561;44.018;10.144;2024-02-21T09:10:21;33.67;;;18.95;;
75885;SDS011;64561;44.018;10.144;2024-02-21T09:12:49;34.10;;;20.30;;
75885;SDS011;64561;44.018;10.144;2024-02-21T09:15:17;32.85;;;17.25;;
75885;SDS011;64561;44.018;10.144;2024-02-21T09:17:44;27.10;;;16.08;;
75885;SDS011;64561;44.018;10.144;2024-02-21T09:20:12;29.23;;;16.20;;
75885;SDS011;64561;44.018;10.144;2024-02-21T09:22:40;20.85;;;13.45;;
75885;SDS011;64561;44.018;10.144;2024-02-21T09:25:08;19.13;;;11.70;;
75885;SDS011;64561;44.018;10.144;2024-02-21T09:27:37;19.88;;;12.10;;
75885;SDS011;64561;44.018;10.144;2024-02-21T09:30:05;22.05;;;11.73;;
75885;SDS011;64561;44.018;10.144;2024-02-21T09:32:33;18.92;;;11.18;;
75885;SDS011;64561;44.018;10.144;2024-02-21T09:35:01;17.10;;;10.48;;
75885;SDS011;64561;44.018;10.144;2024-02-21T09:37:29;20.27;;;11.20;;
75885;SDS011;64561;44.018;10.144;2024-02-21T09:39:56;18.40;;;10.90;;
75885;SDS011;64561;44.018;10.144;2024-02-21T09:42:26;19.42;;;11.07;;
75885;SDS011;64561;44.018;10.144;2024-02-21T09:45:04;19.83;;;10.88;;
75885;SDS011;64561;44.018;10.144;2024-02-21T09:50:27;20.90;;;10.35;;
75885;SDS011;64561;44.018;10.144;2024-02-21T09:52:56;16.23;;;10.20;;
75885;SDS011;64561;44.018;10.144;2024-02-21T09:55:25;16.13;;;9.80;;
75885;SDS011;64561;44.018;10.144;2024-02-21T09:57:54;16.05;;;9.23;;
75885;SDS011;64561;44.018;10.144;2024-02-21T10:00:43;14.98;;;8.50;;
75885;SDS011;64561;44.018;10.144;2024-02-21T10:03:10;13.75;;;8.52;;
75885;SDS011;64561;44.018;10.144;2024-02-21T10:05:38;12.13;;;7.80;;
75885;SDS011;64561;44.018;10.144;2024-02-21T10:08:06;10.98;;;7.40;;
75885;SDS011;64561;44.018;10.144;2024-02-21T10:10:42;11.38;;;6.47;;
75885;SDS011;64561;44.018;10.144;2024-02-21T10:13:10;12.85;;;6.90;;
75885;SDS011;64561;44.018;10.144;2024-02-21T10:15:41;13.10;;;6.82;;
75885;SDS011;64561;44.018;10.144;2024-02-21T10:18:08;9.80;;;6.32;;
75885;SDS011;64561;44.018;10.144;2024-02-21T10:20:35;9.18;;;5.43;;
75885;SDS011;64561;44.018;10.144;2024-02-21T10:23:03;8.18;;;5.13;;
75885;SDS011;64561;44.018;10.144;2024-02-21T10:25:35;7.25;;;4.45;;
75885;SDS011;64561;44.018;10.144;2024-02-21T10:28:08;7.00;;;4.07;;
75885;SDS011;64561;44.018;10.144;2024-02-21T10:30:35;7.43;;;4.32;;
75885;SDS011;64561;44.018;10.144;2024-02-21T10:33:02;9.68;;;5.45;;
75885;SDS011;64561;44.018;10.144;2024-02-21T10:35:32;7.93;;;4.80;;
75885;SDS011;64561;44.018;10.144;2024-02-21T10:38:00;8.25;;;4.90;;
75885;SDS011;64561;44.018;10.144;2024-02-21T10:40:28;9.52;;;5.38;;
75885;SDS011;64561;44.018;10.144;2024-02-21T10:43:00;8.73;;;4.90;;
75885;SDS011;64561;44.018;10.144;2024-02-21T10:45:31;8.05;;;4.65;;
75885;SDS011;64561;44.018;10.144;2024-02-21T10:48:11;8.02;;;4.45;;
75885;SDS011;64561;44.018;10.144;2024-02-21T10:58:52;8.38;;;4.82;;
75885;SDS011;64561;44.018;10.144;2024-02-21T11:01:26;8.43;;;4.15;;
75885;SDS011;64561;44.018;10.144;2024-02-21T11:04:05;7.40;;;4.90;;
75885;SDS011;64561;44.018;10.144;2024-02-21T11:06:41;6.15;;;4.03;;
75885;SDS011;64561;44.018;10.144;2024-02-21T11:09:15;9.85;;;4.82;;
75885;SDS011;64561;44.018;10.144;2024-02-21T11:11:43;8.15;;;4.10;;
75885;SDS011;64561;44.018;10.144;2024-02-21T11:14:17;7.05;;;4.38;;
75885;SDS011;64561;44.018;10.144;2024-02-21T11:16:46;7.90;;;4.32;;
75885;SDS011;64561;44.018;10.144;2024-02-21T11:19:21;7.60;;;4.65;;
75885;SDS011;64561;44.018;10.144;2024-02-21T11:21:50;6.82;;;4.13;;
75885;SDS011;64561;44.018;10.144;2024-02-21T11:24:28;6.00;;;3.60;;
75885;SDS011;64561;44.018;10.144;2024-02-21T11:27:12;7.15;;;4.32;;
75885;SDS011;64561;44.018;10.144;2024-02-21T11:29:47;6.47;;;4.25;;
75885;SDS011;64561;44.018;10.144;2024-02-21T11:32:19;7.22;;;4.65;;
75885;SDS011;64561;44.018;10.144;2024-02-21T11:34:54;7.70;;;5.07;;
75885;SDS011;64561;44.018;10.144;2024-02-21T11:37:24;6.68;;;4.22;;
75885;SDS011;64561;44.018;10.144;2024-02-21T11:39:57;6.47;;;4.53;;
75885;SDS011;64561;44.018;10.144;2024-02-21T11:42:25;7.57;;;4.80;;
75885;SDS011;64561;44.018;10.144;2024-02-21T11:44:53;7.82;;;4.28;;
75885;SDS011;64561;44.018;10.144;2024-02-21T11:47:24;6.88;;;4.03;;
75885;SDS011;64561;44.018;10.144;2024-02-21T11:49:52;6.60;;;4.05;;
75885;SDS011;64561;44.018;10.144;2024-02-21T11:52:22;5.85;;;3.72;;
75885;SDS011;64561;44.018;10.144;2024-02-21T11:54:55;5.18;;;3.50;;
75885;SDS011;64561;44.018;10.144;2024-02-21T11:57:31;5.05;;;3.50;;
75885;SDS011;64561;44.018;10.144;2024-02-21T11:59:59;6.43;;;3.83;;
75885;SDS011;64561;44.018;10.144;2024-02-21T12:02:43;8.50;;;4.38;;
75885;SDS011;64561;44.018;10.144;2024-02-21T12:07:54;4.57;;;3.58;;
75885;SDS011;64561;44.018;10.144;2024-02-21T12:10:22;6.00;;;4.10;;
75885;SDS011;64561;44.018;10.144;2024-02-21T12:12:50;5.38;;;3.70;;
75885;SDS011;64561;44.018;10.144;2024-02-21T12:15:22;7.28;;;4.45;;
75885;SDS011;64561;44.018;10.144;2024-02-21T12:17:51;6.05;;;3.80;;
75885;SDS011;64561;44.018;10.144;2024-02-21T12:20:18;7.35;;;4.13;;
75885;SDS011;64561;44.018;10.144;2024-02-21T12:22:49;6.57;;;3.83;;
75885;SDS011;64561;44.018;10.144;2024-02-21T12:25:17;6.35;;;3.63;;
75885;SDS011;64561;44.018;10.144;2024-02-21T12:27:46;7.57;;;4.25;;
75885;SDS011;64561;44.018;10.144;2024-02-21T12:30:14;6.53;;;4.05;;
75885;SDS011;64561;44.018;10.144;2024-02-21T12:32:41;6.60;;;4.18;;
75885;SDS011;64561;44.018;10.144;2024-02-21T12:35:09;7.18;;;3.95;;
75885;SDS011;64561;44.018;10.144;2024-02-21T12:37:36;7.35;;;4.10;;
75885;SDS011;64561;44.018;10.144;2024-02-21T12:40:06;6.80;;;4.20;;
75885;SDS011;64561;44.018;10.144;2024-02-21T12:42:35;6.82;;;4.03;;
75885;SDS011;64561;44.018;10.144;2024-02-21T12:45:03;7.05;;;3.97;;
75885;SDS011;64561;44.018;10.144;2024-02-21T12:47:31;7.13;;;4.55;;
75885;SDS011;64561;44.018;10.144;2024-02-21T12:49:59;6.35;;;4.05;;
75885;SDS011;64561;44.018;10.144;2024-02-21T12:52:29;6.07;;;4.60;;
75885;SDS011;64561;44.018;10.144;2024-02-21T12:54:56;6.93;;;4.70;;
75885;SDS011;64561;44.018;10.144;2024-02-21T12:57:25;7.93;;;4.57;;
75885;SDS011;64561;44.018;10.144;2024-02-21T12:59:54;7.78;;;5.15;;
75885;SDS011;64561;44.018;10.144;2024-02-21T13:02:21;6.55;;;4.78;;
75885;SDS011;64561;44.018;10.144;2024-02-21T13:04:52;7.80;;;5.10;;
75885;SDS011;64561;44.018;10.144;2024-02-21T13:07:19;7.10;;;5.13;;
75885;SDS011;64561;44.018;10.144;2024-02-21T13:09:47;8.60;;;5.25;;
75885;SDS011;64561;44.018;10.144;2024-02-21T13:12:15;7.28;;;4.50;;
75885;SDS011;64561;44.018;10.144;2024-02-21T13:14:43;9.07;;;4.82;;
75885;SDS011;64561;44.018;10.144;2024-02-21T13:17:13;9.75;;;4.68;;
75885;SDS011;64561;44.018;10.144;2024-02-21T13:19:49;7.93;;;4.47;;
75885;SDS011;64561;44.018;10.144;2024-02-21T13:22:17;7.47;;;4.68;;
75885;SDS011;64561;44.018;10.144;2024-02-21T13:24:54;6.68;;;4.28;;
75885;SDS011;64561;44.018;10.144;2024-02-21T13:27:24;7.63;;;4.20;;
75885;SDS011;64561;44.018;10.144;2024-02-21T13:29:56;6.05;;;3.80;;
75885;SDS011;64561;44.018;10.144;2024-02-21T13:32:32;6.88;;;3.40;;
75885;SDS011;64561;44.018;10.144;2024-02-21T13:35:00;7.35;;;4.50;;
75885;SDS011;64561;44.018;10.144;2024-02-21T13:37:31;7.68;;;4.18;;
75885;SDS011;64561;44.018;10.144;2024-02-21T13:39:58;5.93;;;3.78;;
75885;SDS011;64561;44.018;10.144;2024-02-21T13:42:26;5.07;;;3.28;;
75885;SDS011;64561;44.018;10.144;2024-02-21T13:44:54;5.22;;;3.25;;
75885;SDS011;64561;44.018;10.144;2024-02-21T13:47:22;7.72;;;3.80;;
75885;SDS011;64561;44.018;10.144;2024-02-21T13:49:49;6.30;;;4.00;;
75885;SDS011;64561;44.018;10.144;2024-02-21T13:52:16;5.85;;;3.72;;
75885;SDS011;64561;44.018;10.144;2024-02-21T13:54:44;5.45;;;3.38;;
75885;SDS011;64561;44.018;10.144;2024-02-21T13:57:11;5.32;;;3.47;;
75885;SDS011;64561;44.018;10.144;2024-02-21T13:59:38;5.20;;;3.33;;
75885;SDS011;64561;44.018;10.144;2024-02-21T14:02:06;4.63;;;3.10;;
75885;SDS011;64561;44.018;10.144;2024-02-21T14:04:37;3.67;;;2.50;;
75885;SDS011;64561;44.018;10.144;2024-02-21T14:07:04;4.60;;;2.55;;
75885;SDS011;64561;44.018;10.144;2024-02-21T14:09:31;7.63;;;3.05;;
75885;SDS011;64561;44.018;10.144;2024-02-21T14:11:59;4.53;;;2.70;;
75885;SDS011;64561;44.018;10.144;2024-02-21T14:14:27;5.18;;;2.70;;
75885;SDS011;64561;44.018;10.144;2024-02-21T14:16:54;3.50;;;2.55;;
75885;SDS011;64561;44.018;10.144;2024-02-21T14:19:23;4.35;;;2.58;;
75885;SDS011;64561;44.018;10.144;2024-02-21T14:21:50;4.35;;;2.55;;
75885;SDS011;64561;44.018;10.144;2024-02-21T14:24:18;4.93;;;2.97;;
75885;SDS011;64561;44.018;10.144;2024-02-21T14:26:45;4.07;;;2.80;;
75885;SDS011;64561;44.018;10.144;2024-02-21T14:29:12;4.95;;;2.80;;
75885;SDS011;64561;44.018;10.144;2024-02-21T14:31:39;3.17;;;2.15;;
75885;SDS011;64561;44.018;10.144;2024-02-21T14:34:07;6.32;;;2.15;;
75885;SDS011;64561;44.018;10.144;2024-02-21T14:36:34;3.13;;;1.90;;
75885;SDS011;64561;44.018;10.144;2024-02-21T14:39:02;3.83;;;2.13;;
75885;SDS011;64561;44.018;10.144;2024-02-21T14:41:30;3.20;;;1.90;;
75885;SDS011;64561;44.018;10.144;2024-02-21T14:43:57;4.25;;;2.60;;
75885;SDS011;64561;44.018;10.144;2024-02-21T14:46:31;4.25;;;2.38;;
75885;SDS011;64561;44.018;10.144;2024-02-21T14:48:58;3.92;;;2.10;;
75885;SDS011;64561;44.018;10.144;2024-02-21T14:51:25;4.03;;;2.45;;
75885;SDS011;64561;44.018;10.144;2024-02-21T14:53:53;4.38;;;2.20;;
75885;SDS011;64561;44.018;10.144;2024-02-21T14:56:21;3.72;;;2.10;;